sensor_id;sensor_type;location;lat;lon;timestamp;pressure;altitude;pressure_sealevel;temperature;humidity
41254;BME280;26987;59.928;30.306;2024-03-17T00:02:22;100475.53;;;7.53;100.00
41254;BME280;26987;59.928;30.306;2024-03-17T00:04:50;100462.19;;;7.53;100.00
41254;BME280;26987;59.928;30.306;2024-03-17T00:07:17;100466.53;;;7.54;100.00
41254;BME280;26987;59.928;30.306;2024-03-17T00:09:46;100468.53;;;7.52;100.00
41254;BME280;26987;59.928;30.306;2024-03-17T00:12:13;100475.09;;;7.50;100.00
41254;BME280;26987;59.928;30.306;2024-03-17T00:14:41;100460.25;;;7.40;100.00
41254;BME280;26987;59.928;30.306;2024-03-17T00:17:09;100468.88;;;7.42;100.00
41254;BME280;26987;59.928;30.306;2024-03-17T00:19:37;100458.16;;;7.36;100.00
41254;BME280;26987;59.928;30.306;2024-03-17T00:22:04;100473.31;;;7.35;100.00
41254;BME280;26987;59.928;30.306;2024-03-17T00:24:32;100453.97;;;7.26;100.00
41254;BME280;26987;59.928;30.306;2024-03-17T00:27:03;100455.16;;;7.24;100.00
41254;BME280;26987;59.928;30.306;2024-03-17T00:29:31;100420.06;;;6.98;100.00
41254;BME280;26987;59.928;30.306;2024-03-17T00:31:59;100457.34;;;7.13;100.00
41254;BME280;26987;59.928;30.306;2024-03-17T00:34:27;100421.66;;;6.92;100.00
41254;BME280;26987;59.928;30.306;2024-03-17T00:36:54;100454.03;;;7.11;100.00
41254;BME280;26987;59.928;30.306;2024-03-17T00:39:22;100432.16;;;6.94;100.00
41254;BME280;26987;59.928;30.306;2024-03-17T00:41:49;100441.41;;;6.98;100.00
41254;BME280;26987;59.928;30.306;2024-03-17T00:44:19;100447.94;;;6.96;100.00
41254;BME280;26987;59.928;30.306;2024-03-17T00:46:46;100448.69;;;6.89;100.00
41254;BME280;26987;59.928;30.306;2024-03-17T00:49:14;100447.44;;;6.85;100.00
41254;BME280;26987;59.928;30.306;2024-03-17T00:51:41;100428.84;;;6.70;100.00
41254;BME280;26987;59.928;30.306;2024-03-17T00:54:09;100449.47;;;6.83;100.00
41254;BME280;26987;59.928;30.306;2024-03-17T00:56:36;100443.09;;;6.84;100.00
41254;BME280;26987;59.928;30.306;2024-03-17T00:59:04;100435.28;;;6.82;100.00
41254;BME280;26987;59.928;30.306;2024-03-17T01:01:32;100369.47;;;6.39;100.00
41254;BME280;26987;59.928;30.306;2024-03-17T01:04:00;100430.53;;;6.78;100.00
41254;BME280;26987;59.928;30.306;2024-03-17T01:06:27;100423.56;;;6.77;100.00
41254;BME280;26987;59.928;30.306;2024-03-17T01:08:55;100419.44;;;6.74;100.00
41254;BME280;26987;59.928;30.306;2024-03-17T01:11:22;100415.56;;;6.77;100.00
41254;BME280;26987;59.928;30.306;2024-03-17T01:13:51;100416.03;;;6.80;100.00
41254;BME280;26987;59.928;30.306;2024-03-17T01:16:18;100414.16;;;6.81;100.00
41254;BME280;26987;59.928;30.306;2024-03-17T01:18:47;100417.84;;;6.80;100.00
41254;BME280;26987;59.928;30.306;2024-03-17T01:21:14;100406.31;;;6.73;100.00
41254;BME280;26987;59.928;30.306;2024-03-17T01:23:42;100405.03;;;6.68;100.00
41254;BME280;26987;59.928;30.306;2024-03-17T01:26:09;100407.50;;;6.70;100.00
41254;BME280;26987;59.928;30.306;2024-03-17T01:28:37;100403.50;;;6.59;100.00
41254;BME280;26987;59.928;30.306;2024-03-17T01:31:06;100394.63;;;6.52;100.00
41254;BME280;26987;59.928;30.306;2024-03-17T01:33:34;100402.47;;;6.60;100.00
41254;BME280;26987;59.928;30.306;2024-03-17T01:36:03;100402.09;;;6.63;100.00
41254;BME280;26987;59.928;30.306;2024-03-17T01:38:30;100404.75;;;6.63;100.00
41254;BME280;26987;59.928;30.306;2024-03-17T01:40:58;100398.78;;;6.61;100.00
41254;BME280;26987;59.928;30.306;2024-03-17T01:43:26;100396.41;;;6.66;100.00
41254;BME280;26987;59.928;30.306;2024-03-17T01:45:54;100392.72;;;6.67;100.00
41254;BME280;26987;59.928;30.306;2024-03-17T01:48:21;100371.53;;;6.59;100.00
41254;BME280;26987;59.928;30.306;2024-03-17T01:50:52;100371.78;;;6.64;100.00
41254;BME280;26987;59.928;30.306;2024-03-17T01:53:21;100336.31;;;6.42;100.00
41254;BME280;26987;59.928;30.306;2024-03-17T01:55:53;100388.69;;;6.72;100.00
41254;BME280;26987;59.928;30.306;2024-03-17T01:58:23;100392.16;;;6.72;100.00
41254;BME280;26987;59.928;30.306;2024-03-17T02:00:52;100395.47;;;6.74;100.00
41254;BME280;26987;59.928;30.306;2024-03-17T02:03:19;100394.25;;;6.77;100.00
41254;BME280;26987;59.928;30.306;2024-03-17T02:05:47;100323.03;;;6.27;100.00
41254;BME280;26987;59.928;30.306;2024-03-17T02:08:15;100351.81;;;6.53;100.00
41254;BME280;26987;59.928;30.306;2024-03-17T02:10:45;100376.72;;;6.67;100.00
41254;BME280;26987;59.928;30.306;2024-03-17T02:13:13;100391.16;;;6.73;100.00
41254;BME280;26987;59.928;30.306;2024-03-17T02:15:40;100379.19;;;6.69;100.00
41254;BME280;26987;59.928;30.306;2024-03-17T02:18:09;100385.00;;;6.73;100.00
41254;BME280;26987;59.928;30.306;2024-03-17T02:20:35;100353.63;;;6.53;100.00
41254;BME280;26987;59.928;30.306;2024-03-17T02:23:22;100379.00;;;6.71;100.00
41254;BME280;26987;59.928;30.306;2024-03-17T02:25:52;100381.28;;;6.74;100.00
41254;BME280;26987;59.928;30.306;2024-03-17T02:28:20;100372.41;;;6.66;100.00
41254;BME280;26987;59.928;30.306;2024-03-17T02:30:48;100372.22;;;6.68;100.00
41254;BME280;26987;59.928;30.306;2024-03-17T02:33:15;100370.81;;;6.72;100.00
41254;BME280;26987;59.928;30.306;2024-03-17T02:35:43;100356.16;;;6.61;100.00
41254;BME280;26987;59.928;30.306;2024-03-17T02:38:10;100355.53;;;6.59;100.00
41254;BME280;26987;59.928;30.306;2024-03-17T02:41:04;100371.47;;;6.74;100.00
41254;BME280;26987;59.928;30.306;2024-03-17T02:43:31;100364.88;;;6.70;100.00
41254;BME280;26987;59.928;30.306;2024-03-17T02:45:59;100342.22;;;6.59;100.00
41254;BME280;26987;59.928;30.306;2024-03-17T02:48:30;100355.16;;;6.62;100.00
41254;BME280;26987;59.928;30.306;2024-03-17T02:50:58;100351.66;;;6.62;100.00
41254;BME280;26987;59.928;30.306;2024-03-17T02:53:26;100360.75;;;6.67;100.00
41254;BME280;26987;59.928;30.306;2024-03-17T02:55:54;100363.16;;;6.62;100.00
41254;BME280;26987;59.928;30.306;2024-03-17T02:58:23;100361.13;;;6.64;100.00
41254;BME280;26987;59.928;30.306;2024-03-17T03:00:51;100350.41;;;6.58;100.00
41254;BME280;26987;59.928;30.306;2024-03-17T03:03:19;100354.91;;;6.57;100.00
41254;BME280;26987;59.928;30.306;2024-03-17T03:05:51;100345.91;;;6.58;100.00
41254;BME280;26987;59.928;30.306;2024-03-17T03:08:19;100343.88;;;6.60;100.00
41254;BME280;26987;59.928;30.306;2024-03-17T03:10:46;100347.56;;;6.59;100.00
41254;BME280;26987;59.928;30.306;2024-03-17T03:13:14;100349.56;;;6.57;100.00
41254;BME280;26987;59.928;30.306;2024-03-17T03:15:46;100348.44;;;6.66;100.00
41254;BME280;26987;59.928;30.306;2024-03-17T03:18:14;100346.72;;;6.59;100.00
41254;BME280;26987;59.928;30.306;2024-03-17T03:20:42;100344.69;;;6.61;100.00
41254;BME280;26987;59.928;30.306;2024-03-17T03:23:11;100349.56;;;6.57;100.00
41254;BME280;26987;59.928;30.306;2024-03-17T03:25:38;100352.81;;;6.52;100.00
41254;BME280;26987;59.928;30.306;2024-03-17T03:28:06;100346.09;;;6.56;100.00
41254;BME280;26987;59.928;30.306;2024-03-17T03:30:35;100338.41;;;6.47;100.00
41254;BME280;26987;59.928;30.306;2024-03-17T03:33:05;100331.50;;;6.52;100.00
41254;BME280;26987;59.928;30.306;2024-03-17T03:35:33;100351.63;;;6.55;100.00
41254;BME280;26987;59.928;30.306;2024-03-17T03:38:01;100351.63;;;6.55;100.00
41254;BME280;26987;59.928;30.306;2024-03-17T03:40:29;100345.00;;;6.51;100.00
41254;BME280;26987;59.928;30.306;2024-03-17T03:42:57;100346.66;;;6.52;100.00
41254;BME280;26987;59.928;30.306;2024-03-17T03:45:25;100335.56;;;6.48;100.00
41254;BME280;26987;59.928;30.306;2024-03-17T03:47:53;100346.66;;;6.52;100.00
41254;BME280;26987;59.928;30.306;2024-03-17T03:50:22;100342.97;;;6.53;100.00
41254;BME280;26987;59.928;30.306;2024-03-17T03:52:52;100347.09;;;6.55;100.00
41254;BME280;26987;59.928;30.306;2024-03-17T03:55:20;100347.03;;;6.49;100.00
41254;BME280;26987;59.928;30.306;2024-03-17T03:57:48;100343.16;;;6.51;100.00
41254;BME280;26987;59.928;30.306;2024-03-17T04:00:19;100339.63;;;6.44;100.00
41254;BME280;26987;59.928;30.306;2024-03-17T04:02:48;100337.78;;;6.45;100.00
41254;BME280;26987;59.928;30.306;2024-03-17T04:05:17;100341.91;;;6.47;100.00
41254;BME280;26987;59.928;30.306;2024-03-17T04:07:47;100338.72;;;6.37;100.00
41254;BME280;26987;59.928;30.306;2024-03-17T04:10:15;100352.09;;;6.43;100.00
41254;BME280;26987;59.928;30.306;2024-03-17T04:12:45;100345.69;;;6.38;100.00
41254;BME280;26987;59.928;30.306;2024-03-17T04:15:13;100345.69;;;6.38;100.00
41254;BME280;26987;59.928;30.306;2024-03-17T04:17:41;100349.09;;;6.31;100.00
41254;BME280;26987;59.928;30.306;2024-03-17T04:20:10;100347.28;;;6.32;100.00
41254;BME280;26987;59.928;30.306;2024-03-17T04:22:40;100338.22;;;6.26;100.00
41254;BME280;26987;59.928;30.306;2024-03-17T04:25:11;100338.25;;;6.33;100.00
41254;BME280;26987;59.928;30.306;2024-03-17T04:27:39;100347.28;;;6.32;100.00
41254;BME280;26987;59.928;30.306;2024-03-17T04:30:07;100354.63;;;6.30;100.00
41254;BME280;26987;59.928;30.306;2024-03-17T04:32:38;100353.91;;;6.21;100.00
41254;BME280;26987;59.928;30.306;2024-03-17T04:35:07;100362.41;;;6.31;100.00
41254;BME280;26987;59.928;30.306;2024-03-17T04:37:35;100366.72;;;6.33;100.00
41254;BME280;26987;59.928;30.306;2024-03-17T04:40:07;100359.56;;;6.33;100.00
41254;BME280;26987;59.928;30.306;2024-03-17T04:42:39;100371.88;;;6.34;100.00
41254;BME280;26987;59.928;30.306;2024-03-17T04:45:08;100363.44;;;6.30;100.00
41254;BME280;26987;59.928;30.306;2024-03-17T04:47:37;100313.09;;;5.99;100.00
41254;BME280;26987;59.928;30.306;2024-03-17T04:50:06;100357.47;;;6.28;100.00
41254;BME280;26987;59.928;30.306;2024-03-17T04:52:34;100352.16;;;6.28;100.00
41254;BME280;26987;59.928;30.306;2024-03-17T04:55:02;100365.34;;;6.37;100.00
41254;BME280;26987;59.928;30.306;2024-03-17T04:57:31;100359.19;;;6.36;100.00
41254;BME280;26987;59.928;30.306;2024-03-17T05:00:00;100345.63;;;6.31;100.00
41254;BME280;26987;59.928;30.306;2024-03-17T05:02:30;100362.50;;;6.38;100.00
41254;BME280;26987;59.928;30.306;2024-03-17T05:04:59;100353.78;;;6.45;100.00
41254;BME280;26987;59.928;30.306;2024-03-17T05:07:27;100354.72;;;6.37;100.00
41254;BME280;26987;59.928;30.306;2024-03-17T05:09:55;100370.00;;;6.50;100.00
41254;BME280;26987;59.928;30.306;2024-03-17T05:12:23;100360.66;;;6.39;100.00
41254;BME280;26987;59.928;30.306;2024-03-17T05:14:51;100363.78;;;6.42;100.00
41254;BME280;26987;59.928;30.306;2024-03-17T05:17:20;100361.34;;;6.48;100.00
41254;BME280;26987;59.928;30.306;2024-03-17T05:19:48;100376.16;;;6.50;100.00
41254;BME280;26987;59.928;30.306;2024-03-17T05:22:16;100352.28;;;6.42;100.00
41254;BME280;26987;59.928;30.306;2024-03-17T05:24:43;100364.66;;;6.50;100.00
41254;BME280;26987;59.928;30.306;2024-03-17T05:27:11;100358.69;;;6.48;100.00
41254;BME280;26987;59.928;30.306;2024-03-17T05:29:40;100385.97;;;6.50;100.00
41254;BME280;26987;59.928;30.306;2024-03-17T05:32:08;100372.41;;;6.45;100.00
41254;BME280;26987;59.928;30.306;2024-03-17T05:34:37;100370.75;;;6.43;100.00
41254;BME280;26987;59.928;30.306;2024-03-17T05:37:05;100377.75;;;6.45;100.00
41254;BME280;26987;59.928;30.306;2024-03-17T05:39:33;100389.19;;;6.45;100.00
41254;BME280;26987;59.928;30.306;2024-03-17T05:42:02;100395.38;;;6.46;100.00
41254;BME280;26987;59.928;30.306;2024-03-17T05:44:30;100379.06;;;6.34;100.00
41254;BME280;26987;59.928;30.306;2024-03-17T05:47:17;100398.66;;;6.48;100.00
41254;BME280;26987;59.928;30.306;2024-03-17T05:49:46;100390.03;;;6.46;100.00
41254;BME280;26987;59.928;30.306;2024-03-17T05:52:14;100392.41;;;6.40;100.00
41254;BME280;26987;59.928;30.306;2024-03-17T05:54:42;100396.09;;;6.39;100.00
41254;BME280;26987;59.928;30.306;2024-03-17T05:57:10;100391.44;;;6.41;100.00
41254;BME280;26987;59.928;30.306;2024-03-17T05:59:40;100400.88;;;6.44;100.00
41254;BME280;26987;59.928;30.306;2024-03-17T06:02:09;100409.50;;;6.46;100.00
41254;BME280;26987;59.928;30.306;2024-03-17T06:04:38;100402.50;;;6.45;100.00
41254;BME280;26987;59.928;30.306;2024-03-17T06:07:07;100401.91;;;6.43;100.00
41254;BME280;26987;59.928;30.306;2024-03-17T06:09:35;100413.00;;;6.47;100.00
41254;BME280;26987;59.928;30.306;2024-03-17T06:12:04;100408.03;;;6.43;100.00
41254;BME280;26987;59.928;30.306;2024-03-17T06:14:33;100408.03;;;6.43;100.00
41254;BME280;26987;59.928;30.306;2024-03-17T06:17:01;100413.44;;;6.50;100.00
41254;BME280;26987;59.928;30.306;2024-03-17T06:19:30;100421.25;;;6.52;100.00
41254;BME280;26987;59.928;30.306;2024-03-17T06:21:59;100416.66;;;6.46;100.00
41254;BME280;26987;59.928;30.306;2024-03-17T06:24:28;100388.25;;;6.31;100.00
41254;BME280;26987;59.928;30.306;2024-03-17T06:26:56;100418.50;;;6.45;100.00
41254;BME280;26987;59.928;30.306;2024-03-17T06:29:25;100423.81;;;6.45;100.00
41254;BME280;26987;59.928;30.306;2024-03-17T06:31:53;100417.59;;;6.38;100.00
41254;BME280;26987;59.928;30.306;2024-03-17T06:34:21;100422.94;;;6.38;100.00
41254;BME280;26987;59.928;30.306;2024-03-17T06:36:49;100442.47;;;6.45;100.00
41254;BME280;26987;59.928;30.306;2024-03-17T06:39:17;100437.06;;;6.38;100.00
41254;BME280;26987;59.928;30.306;2024-03-17T06:41:49;100453.06;;;6.38;100.00
41254;BME280;26987;59.928;30.306;2024-03-17T06:44:17;100449.69;;;6.29;100.00
41254;BME280;26987;59.928;30.306;2024-03-17T06:46:45;100445.88;;;6.24;100.00
41254;BME280;26987;59.928;30.306;2024-03-17T06:49:13;100466.19;;;6.25;100.00
41254;BME280;26987;59.928;30.306;2024-03-17T06:51:43;100475.19;;;6.24;100.00
41254;BME280;26987;59.928;30.306;2024-03-17T06:54:11;100471.34;;;6.11;100.00
41254;BME280;26987;59.928;30.306;2024-03-17T06:56:39;100478.69;;;6.09;100.00
41254;BME280;26987;59.928;30.306;2024-03-17T06:59:09;100495.31;;;6.11;100.00
41254;BME280;26987;59.928;30.306;2024-03-17T07:01:37;100493.09;;;5.61;100.00
41254;BME280;26987;59.928;30.306;2024-03-17T07:04:05;100497.06;;;4.95;100.00
41254;BME280;26987;59.928;30.306;2024-03-17T07:06:33;100491.72;;;4.32;100.00
41254;BME280;26987;59.928;30.306;2024-03-17T07:09:01;100500.28;;;3.85;100.00
41254;BME280;26987;59.928;30.306;2024-03-17T07:11:29;100514.38;;;3.52;100.00
41254;BME280;26987;59.928;30.306;2024-03-17T07:13:57;100508.25;;;3.19;100.00
41254;BME280;26987;59.928;30.306;2024-03-17T07:16:26;100500.69;;;2.72;100.00
41254;BME280;26987;59.928;30.306;2024-03-17T07:18:54;100529.84;;;2.37;100.00
41254;BME280;26987;59.928;30.306;2024-03-17T07:21:22;100479.66;;;1.93;100.00
41254;BME280;26987;59.928;30.306;2024-03-17T07:23:50;100524.81;;;1.99;100.00
41254;BME280;26987;59.928;30.306;2024-03-17T07:26:18;100527.88;;;1.86;100.00
41254;BME280;26987;59.928;30.306;2024-03-17T07:28:46;100533.78;;;1.80;100.00
41254;BME280;26987;59.928;30.306;2024-03-17T07:31:14;100413.41;;;0.96;100.00
41254;BME280;26987;59.928;30.306;2024-03-17T07:33:45;100546.94;;;1.72;100.00
41254;BME280;26987;59.928;30.306;2024-03-17T07:36:13;100546.03;;;1.63;100.00
41254;BME280;26987;59.928;30.306;2024-03-17T07:38:41;100536.47;;;1.44;100.00
41254;BME280;26987;59.928;30.306;2024-03-17T07:41:09;100511.34;;;1.21;100.00
41254;BME280;26987;59.928;30.306;2024-03-17T07:43:38;100551.72;;;1.50;100.00
41254;BME280;26987;59.928;30.306;2024-03-17T07:46:07;100543.25;;;1.28;100.00
41254;BME280;26987;59.928;30.306;2024-03-17T07:48:36;100579.44;;;1.46;100.00
41254;BME280;26987;59.928;30.306;2024-03-17T07:51:10;100571.81;;;1.43;100.00
41254;BME280;26987;59.928;30.306;2024-03-17T07:53:48;100577.97;;;1.33;100.00
41254;BME280;26987;59.928;30.306;2024-03-17T07:56:18;100571.94;;;1.23;100.00
41254;BME280;26987;59.928;30.306;2024-03-17T07:58:47;100580.56;;;1.25;100.00
41254;BME280;26987;59.928;30.306;2024-03-17T08:01:17;100578.09;;;1.13;100.00
41254;BME280;26987;59.928;30.306;2024-03-17T08:03:46;100560.72;;;0.93;100.00
41254;BME280;26987;59.928;30.306;2024-03-17T08:06:17;100596.16;;;1.18;100.00
41254;BME280;26987;59.928;30.306;2024-03-17T08:08:45;100600.13;;;1.04;100.00
41254;BME280;26987;59.928;30.306;2024-03-17T08:11:13;100535.06;;;0.57;100.00
41254;BME280;26987;59.928;30.306;2024-03-17T08:13:40;100598.91;;;0.98;100.00
41254;BME280;26987;59.928;30.306;2024-03-17T08:16:10;100605.50;;;0.84;100.00
41254;BME280;26987;59.928;30.306;2024-03-17T08:18:38;100616.03;;;0.94;100.00
41254;BME280;26987;59.928;30.306;2024-03-17T08:21:06;100630.22;;;0.93;100.00
41254;BME280;26987;59.928;30.306;2024-03-17T08:23:36;100634.38;;;0.86;100.00
41254;BME280;26987;59.928;30.306;2024-03-17T08:26:08;100633.88;;;0.82;100.00
41254;BME280;26987;59.928;30.306;2024-03-17T08:28:36;100644.44;;;0.82;100.00
41254;BME280;26987;59.928;30.306;2024-03-17T08:31:04;100655.66;;;0.84;100.00
41254;BME280;26987;59.928;30.306;2024-03-17T08:33:32;100655.84;;;0.73;100.00
41254;BME280;26987;59.928;30.306;2024-03-17T08:36:02;100663.56;;;0.84;100.00
41254;BME280;26987;59.928;30.306;2024-03-17T08:38:31;100665.53;;;0.82;100.00
41254;BME280;26987;59.928;30.306;2024-03-17T08:41:04;100665.13;;;0.77;100.00
41254;BME280;26987;59.928;30.306;2024-03-17T08:43:32;100679.41;;;0.84;100.00
41254;BME280;26987;59.928;30.306;2024-03-17T08:46:02;100634.13;;;0.51;100.00
41254;BME280;26987;59.928;30.306;2024-03-17T08:48:32;100698.22;;;0.81;100.00
41254;BME280;26987;59.928;30.306;2024-03-17T08:51:01;100708.06;;;0.79;100.00
41254;BME280;26987;59.928;30.306;2024-03-17T08:53:30;100702.25;;;0.66;100.00
41254;BME280;26987;59.928;30.306;2024-03-17T08:55:58;100710.31;;;0.64;100.00
41254;BME280;26987;59.928;30.306;2024-03-17T08:58:28;100727.44;;;0.60;100.00
41254;BME280;26987;59.928;30.306;2024-03-17T09:00:56;100720.22;;;0.52;100.00
41254;BME280;26987;59.928;30.306;2024-03-17T09:03:24;100722.13;;;0.50;100.00
41254;BME280;26987;59.928;30.306;2024-03-17T09:05:53;100725.06;;;0.47;100.00
41254;BME280;26987;59.928;30.306;2024-03-17T09:08:22;100725.22;;;0.35;100.00
41254;BME280;26987;59.928;30.306;2024-03-17T09:10:51;100766.59;;;0.45;100.00
41254;BME280;26987;59.928;30.306;2024-03-17T09:13:20;100733.16;;;0.26;100.00
41254;BME280;26987;59.928;30.306;2024-03-17T09:15:52;100756.75;;;0.37;100.00
41254;BME280;26987;59.928;30.306;2024-03-17T09:18:20;100747.16;;;0.36;100.00
41254;BME280;26987;59.928;30.306;2024-03-17T09:20:56;100749.41;;;0.41;100.00
41254;BME280;26987;59.928;30.306;2024-03-17T09:23:24;100763.81;;;0.46;100.00
41254;BME280;26987;59.928;30.306;2024-03-17T09:25:56;100760.34;;;0.46;100.00
41254;BME280;26987;59.928;30.306;2024-03-17T09:28:24;100780.88;;;0.42;100.00
41254;BME280;26987;59.928;30.306;2024-03-17T09:30:54;100775.06;;;0.39;100.00
41254;BME280;26987;59.928;30.306;2024-03-17T09:33:23;100780.63;;;0.35;100.00
41254;BME280;26987;59.928;30.306;2024-03-17T09:35:55;100799.50;;;0.31;100.00
41254;BME280;26987;59.928;30.306;2024-03-17T09:38:23;100796.00;;;0.30;100.00
41254;BME280;26987;59.928;30.306;2024-03-17T09:40:51;100805.03;;;0.28;100.00
41254;BME280;26987;59.928;30.306;2024-03-17T09:43:22;100748.34;;;-0.18;100.00
41254;BME280;26987;59.928;30.306;2024-03-17T09:45:50;100784.22;;;0.15;100.00
41254;BME280;26987;59.928;30.306;2024-03-17T09:48:23;100810.19;;;0.29;100.00
41254;BME280;26987;59.928;30.306;2024-03-17T09:50:52;100825.75;;;0.32;100.00
41254;BME280;26987;59.928;30.306;2024-03-17T09:53:24;100827.56;;;0.42;100.00
41254;BME280;26987;59.928;30.306;2024-03-17T09:55:54;100848.41;;;0.45;100.00
41254;BME280;26987;59.928;30.306;2024-03-17T09:58:24;100857.84;;;0.47;100.00
41254;BME280;26987;59.928;30.306;2024-03-17T10:00:52;100862.41;;;0.45;100.00
41254;BME280;26987;59.928;30.306;2024-03-17T10:03:40;100874.50;;;0.48;100.00
41254;BME280;26987;59.928;30.306;2024-03-17T10:06:11;100826.28;;;0.16;100.00
41254;BME280;26987;59.928;30.306;2024-03-17T10:08:43;100866.56;;;0.38;100.00
41254;BME280;26987;59.928;30.306;2024-03-17T10:11:11;100869.75;;;0.32;100.00
41254;BME280;26987;59.928;30.306;2024-03-17T10:13:40;100878.09;;;0.27;100.00
41254;BME280;26987;59.928;30.306;2024-03-17T10:16:20;100839.44;;;0.06;100.00
41254;BME280;26987;59.928;30.306;2024-03-17T10:18:50;100871.69;;;0.30;100.00
41254;BME280;26987;59.928;30.306;2024-03-17T10:21:25;100896.00;;;0.33;100.00
41254;BME280;26987;59.928;30.306;2024-03-17T10:24:06;100908.09;;;0.36;100.00
41254;BME280;26987;59.928;30.306;2024-03-17T10:26:41;100894.28;;;0.12;100.00
41254;BME280;26987;59.928;30.306;2024-03-17T10:29:20;100887.59;;;0.08;100.00
41254;BME280;26987;59.928;30.306;2024-03-17T10:31:49;100914.97;;;0.17;100.00
41254;BME280;26987;59.928;30.306;2024-03-17T10:34:18;100861.16;;;-0.21;100.00
41254;BME280;26987;59.928;30.306;2024-03-17T10:36:46;100941.06;;;0.10;100.00
41254;BME280;26987;59.928;30.306;2024-03-17T10:39:23;100928.81;;;0.09;100.00
41254;BME280;26987;59.928;30.306;2024-03-17T10:41:59;100930.09;;;0.15;100.00
41254;BME280;26987;59.928;30.306;2024-03-17T10:44:27;100932.44;;;0.08;100.00
41254;BME280;26987;59.928;30.306;2024-03-17T10:46:58;100954.44;;;-0.03;100.00
41254;BME280;26987;59.928;30.306;2024-03-17T10:49:30;100950.03;;;-0.02;100.00
41254;BME280;26987;59.928;30.306;2024-03-17T10:52:00;100943.75;;;-0.11;100.00
41254;BME280;26987;59.928;30.306;2024-03-17T10:54:28;100976.19;;;-0.10;100.00
41254;BME280;26987;59.928;30.306;2024-03-17T10:56:57;100977.81;;;-0.19;100.00
41254;BME280;26987;59.928;30.306;2024-03-17T10:59:38;100960.34;;;-0.20;100.00
41254;BME280;26987;59.928;30.306;2024-03-17T11:02:20;100999.69;;;-0.29;100.00
41254;BME280;26987;59.928;30.306;2024-03-17T11:04:53;100976.34;;;-0.33;100.00
41254;BME280;26987;59.928;30.306;2024-03-17T11:07:22;100972.53;;;-0.41;100.00
41254;BME280;26987;59.928;30.306;2024-03-17T11:09:52;100989.59;;;-0.45;100.00
41254;BME280;26987;59.928;30.306;2024-03-17T11:12:45;101008.94;;;-0.34;100.00
41254;BME280;26987;59.928;30.306;2024-03-17T11:15:36;101011.06;;;-0.28;100.00
41254;BME280;26987;59.928;30.306;2024-03-17T11:18:28;101011.56;;;-0.34;100.00
41254;BME280;26987;59.928;30.306;2024-03-17T11:21:00;101010.66;;;-0.45;100.00
41254;BME280;26987;59.928;30.306;2024-03-17T11:23:34;101044.78;;;-0.43;100.00
41254;BME280;26987;59.928;30.306;2024-03-17T11:26:04;101030.34;;;-0.49;100.00
41254;BME280;26987;59.928;30.306;2024-03-17T11:28:48;101089.16;;;-0.48;100.00
41254;BME280;26987;59.928;30.306;2024-03-17T11:31:37;101058.09;;;-0.45;100.00
41254;BME280;26987;59.928;30.306;2024-03-17T11:36:53;101045.97;;;-0.69;100.00
41254;BME280;26987;59.928;30.306;2024-03-17T11:39:21;101055.53;;;-0.68;100.00
41254;BME280;26987;59.928;30.306;2024-03-17T11:42:13;101036.19;;;-0.78;100.00
41254;BME280;26987;59.928;30.306;2024-03-17T11:44:42;101060.22;;;-0.71;100.00
41254;BME280;26987;59.928;30.306;2024-03-17T11:47:09;101102.75;;;-0.76;100.00
41254;BME280;26987;59.928;30.306;2024-03-17T11:49:38;101059.75;;;-0.77;100.00
41254;BME280;26987;59.928;30.306;2024-03-17T11:52:09;101037.88;;;-0.89;100.00
41254;BME280;26987;59.928;30.306;2024-03-17T11:54:40;101048.66;;;-0.80;100.00
41254;BME280;26987;59.928;30.306;2024-03-17T11:57:10;101063.72;;;-0.71;100.00
41254;BME280;26987;59.928;30.306;2024-03-17T11:59:37;101081.06;;;-0.80;100.00
41254;BME280;26987;59.928;30.306;2024-03-17T12:02:10;101084.06;;;-0.73;100.00
41254;BME280;26987;59.928;30.306;2024-03-17T12:04:43;101112.78;;;-0.70;100.00
41254;BME280;26987;59.928;30.306;2024-03-17T12:07:13;101083.25;;;-0.96;100.00
41254;BME280;26987;59.928;30.306;2024-03-17T12:09:41;101084.47;;;-1.00;100.00
41254;BME280;26987;59.928;30.306;2024-03-17T12:12:11;101101.19;;;-0.90;100.00
41254;BME280;26987;59.928;30.306;2024-03-17T12:14:39;101103.63;;;-0.98;100.00
41254;BME280;26987;59.928;30.306;2024-03-17T12:17:08;101124.34;;;-1.17;100.00
41254;BME280;26987;59.928;30.306;2024-03-17T12:19:36;101112.59;;;-1.12;100.00
41254;BME280;26987;59.928;30.306;2024-03-17T12:22:05;101107.56;;;-1.16;100.00
41254;BME280;26987;59.928;30.306;2024-03-17T12:24:35;101138.94;;;-1.01;100.00
41254;BME280;26987;59.928;30.306;2024-03-17T12:27:05;101148.63;;;-1.13;100.00
41254;BME280;26987;59.928;30.306;2024-03-17T12:29:39;101097.53;;;-1.33;100.00
41254;BME280;26987;59.928;30.306;2024-03-17T12:32:13;101140.84;;;-1.15;100.00
41254;BME280;26987;59.928;30.306;2024-03-17T12:34:42;101128.88;;;-1.19;100.00
41254;BME280;26987;59.928;30.306;2024-03-17T12:37:16;101125.03;;;-1.26;100.00
41254;BME280;26987;59.928;30.306;2024-03-17T12:39:46;101152.91;;;-1.23;100.00
41254;BME280;26987;59.928;30.306;2024-03-17T12:42:15;101172.66;;;-1.29;100.00
41254;BME280;26987;59.928;30.306;2024-03-17T12:44:48;101163.31;;;-1.33;100.00
41254;BME280;26987;59.928;30.306;2024-03-17T12:47:17;101175.50;;;-1.32;100.00
41254;BME280;26987;59.928;30.306;2024-03-17T12:49:45;101205.88;;;-1.40;100.00
41254;BME280;26987;59.928;30.306;2024-03-17T12:52:21;101180.88;;;-1.57;100.00
41254;BME280;26987;59.928;30.306;2024-03-17T12:55:00;101210.16;;;-1.50;100.00